createdAt,value
2023-02-09T00:01:16.185Z,38.83
2023-02-09T00:03:43.774Z,42.23
2023-02-09T00:06:14.800Z,40.87
2023-02-09T00:08:41.637Z,39.83
2023-02-09T00:11:10.754Z,35.50
2023-02-09T00:13:38.180Z,35.57
2023-02-09T00:16:05.118Z,34.43
2023-02-09T00:18:33.551Z,34.40
2023-02-09T00:21:08.711Z,34.03
2023-02-09T00:23:37.852Z,32.53
2023-02-09T00:26:10.360Z,34.63
2023-02-09T00:28:37.304Z,38.10
2023-02-09T00:31:11.673Z,33.73
2023-02-09T00:33:38.671Z,31.77
2023-02-09T00:36:07.417Z,37.30
2023-02-09T00:38:35.102Z,38.53
2023-02-09T00:41:02.182Z,35.50
2023-02-09T00:43:28.834Z,35.53
2023-02-09T00:45:55.627Z,35.47
2023-02-09T00:48:22.624Z,35.93
2023-02-09T00:50:51.798Z,32.80
2023-02-09T00:53:19.732Z,31.97
2023-02-09T00:55:47.067Z,34.83
2023-02-09T00:58:13.757Z,31.57
2023-02-09T01:00:40.532Z,37.80
2023-02-09T01:03:07.239Z,36.87
2023-02-09T01:05:34.229Z,38.80
2023-02-09T01:08:00.931Z,37.60
2023-02-09T01:10:27.717Z,35.57
2023-02-09T01:12:54.447Z,36.87
2023-02-09T01:15:21.089Z,38.70
2023-02-09T01:17:47.761Z,37.77
2023-02-09T01:20:15.017Z,43.23
2023-02-09T01:22:41.781Z,35.40
2023-02-09T01:25:08.850Z,34.53
2023-02-09T01:27:35.818Z,32.97
2023-02-09T01:30:02.783Z,36.27
2023-02-09T01:32:29.489Z,34.20
2023-02-09T01:37:26.184Z,35.53
2023-02-09T01:39:52.876Z,33.63
2023-02-09T01:42:20.979Z,34.10
2023-02-09T01:44:47.646Z,32.37
2023-02-09T01:47:16.175Z,29.43
2023-02-09T01:49:46.170Z,28.97
2023-02-09T01:52:17.992Z,31.27
2023-02-09T01:54:55.229Z,35.23
2023-02-09T01:57:27.548Z,31.50
2023-02-09T02:00:00.048Z,30.60
2023-02-09T02:02:27.160Z,30.23
2023-02-09T02:04:54.217Z,33.17
2023-02-09T02:07:28.252Z,30.83
2023-02-09T02:09:55.429Z,30.20
2023-02-09T02:12:23.192Z,33.53
2023-02-09T02:14:49.928Z,34.60
2023-02-09T02:17:47.927Z,33.93
2023-02-09T02:20:33.284Z,34.10
2023-02-09T02:23:24.001Z,32.73
2023-02-09T02:26:07.148Z,31.27
2023-02-09T02:28:49.215Z,31.40
2023-02-09T02:31:34.051Z,34.17
2023-02-09T02:34:24.148Z,26.93
2023-02-09T02:37:22.946Z,33.57
2023-02-09T02:40:03.673Z,35.63
2023-02-09T02:42:55.386Z,30.27
2023-02-09T02:45:52.701Z,31.33
2023-02-09T02:48:48.342Z,32.60
2023-02-09T02:51:32.871Z,35.10
2023-02-09T02:54:07.601Z,29.93
2023-02-09T02:56:41.979Z,30.53
2023-02-09T02:59:13.147Z,30.57
2023-02-09T03:01:43.614Z,34.23
2023-02-09T03:04:14.267Z,31.03
2023-02-09T03:06:41.000Z,32.13
2023-02-09T03:09:08.725Z,32.77
2023-02-09T03:11:39.533Z,30.33
2023-02-09T03:14:54.298Z,32.13
2023-02-09T03:17:41.313Z,30.70
2023-02-09T03:20:24.207Z,31.30
2023-02-09T03:22:58.214Z,34.83
2023-02-09T03:25:29.474Z,30.03
2023-02-09T03:28:18.522Z,32.40
2023-02-09T03:30:49.737Z,32.03
2023-02-09T03:33:22.749Z,37.10
2023-02-09T03:35:51.977Z,33.43
2023-02-09T03:38:18.681Z,35.97
2023-02-09T03:40:45.705Z,32.20
2023-02-09T03:43:13.195Z,31.70
2023-02-09T03:45:39.948Z,32.90
2023-02-09T03:48:07.375Z,31.87
2023-02-09T03:50:35.984Z,31.83
2023-02-09T03:53:06.668Z,30.17
2023-02-09T03:55:34.221Z,32.17
2023-02-09T03:58:00.969Z,34.33
2023-02-09T04:00:27.811Z,30.77
2023-02-09T04:02:54.569Z,35.03
2023-02-09T04:05:22.815Z,30.87
2023-02-09T04:07:49.770Z,35.30
2023-02-09T04:10:16.510Z,30.30
2023-02-09T04:12:43.224Z,33.03
2023-02-09T04:15:10.578Z,31.60
2023-02-09T04:17:37.286Z,30.67
2023-02-09T04:20:04.292Z,35.20
2023-02-09T04:22:31.071Z,29.37
2023-02-09T04:24:57.800Z,33.77
2023-02-09T04:27:24.563Z,30.77
2023-02-09T04:29:51.244Z,33.83
2023-02-09T04:32:18.005Z,29.10
2023-02-09T04:34:44.711Z,29.60
2023-02-09T04:37:11.416Z,30.47
2023-02-09T04:39:38.123Z,30.87
2023-02-09T04:42:04.862Z,27.33
2023-02-09T04:44:31.596Z,27.13
2023-02-09T04:46:58.380Z,28.63
2023-02-09T04:49:25.126Z,26.97
2023-02-09T04:51:51.861Z,26.33
2023-02-09T04:54:18.586Z,29.47
2023-02-09T04:56:45.312Z,31.67
2023-02-09T04:59:30.844Z,33.50
2023-02-09T05:01:57.525Z,32.37
2023-02-09T05:04:24.341Z,30.70
2023-02-09T05:06:51.219Z,35.07
2023-02-09T05:09:17.901Z,32.67
2023-02-09T05:11:44.694Z,34.80
2023-02-09T05:14:11.468Z,33.83
2023-02-09T05:16:39.310Z,33.47
2023-02-09T05:19:06.272Z,32.83
2023-02-09T05:21:33.016Z,33.60
2023-02-09T05:23:59.741Z,28.97
2023-02-09T05:26:26.481Z,33.83
2023-02-09T05:28:53.227Z,32.00
2023-02-09T05:31:20.465Z,30.77
2023-02-09T05:33:47.331Z,31.10
2023-02-09T05:36:14.080Z,33.70
2023-02-09T05:38:41.117Z,30.07
2023-02-09T05:41:10.145Z,28.97
2023-02-09T05:43:37.661Z,34.37
2023-02-09T05:46:07.818Z,30.27
2023-02-09T05:48:36.034Z,30.73
2023-02-09T05:51:02.838Z,26.57
2023-02-09T05:53:29.546Z,36.77
2023-02-09T05:55:56.251Z,33.20
2023-02-09T05:58:22.940Z,34.63
2023-02-09T06:00:49.656Z,29.67
2023-02-09T06:03:16.426Z,31.53
2023-02-09T06:05:45.665Z,32.37
2023-02-09T06:08:12.435Z,32.60
2023-02-09T06:10:39.136Z,35.50
2023-02-09T06:13:05.896Z,35.30
2023-02-09T06:15:32.677Z,34.87
2023-02-09T06:17:59.468Z,30.40
2023-02-09T06:20:26.230Z,30.20
2023-02-09T06:22:52.917Z,30.87
2023-02-09T06:25:19.631Z,30.53
2023-02-09T06:27:46.458Z,35.33
2023-02-09T06:30:13.598Z,28.97
2023-02-09T06:32:40.292Z,27.63
2023-02-09T06:35:07.090Z,32.33
2023-02-09T06:37:33.832Z,30.27
2023-02-09T06:40:00.592Z,31.03
2023-02-09T06:42:43.762Z,29.50
2023-02-09T06:45:15.476Z,31.03
2023-02-09T06:47:44.076Z,30.67
2023-02-09T06:50:13.261Z,30.43
2023-02-09T06:52:40.138Z,33.27
2023-02-09T06:55:07.522Z,31.57
2023-02-09T06:57:35.140Z,29.93
2023-02-09T07:00:03.145Z,31.60
2023-02-09T07:02:29.870Z,31.53
2023-02-09T07:04:57.680Z,38.33
2023-02-09T07:07:25.548Z,34.37
2023-02-09T07:09:52.352Z,26.30
2023-02-09T07:12:19.094Z,35.20
2023-02-09T07:14:46.002Z,41.50
2023-02-09T07:17:12.893Z,42.87
2023-02-09T07:19:39.592Z,37.73
2023-02-09T07:22:07.703Z,30.53
2023-02-09T07:24:34.413Z,30.70
2023-02-09T07:27:01.128Z,29.30
2023-02-09T07:29:27.840Z,25.10
2023-02-09T07:31:54.574Z,21.63
2023-02-09T07:34:21.298Z,21.50
2023-02-09T07:36:48.160Z,20.67
2023-02-09T07:39:15.296Z,19.77
2023-02-09T07:41:42.205Z,18.10
2023-02-09T07:44:11.714Z,17.57
2023-02-09T07:46:38.546Z,17.47
2023-02-09T07:49:05.286Z,17.43
2023-02-09T07:51:34.078Z,19.53
2023-02-09T07:54:01.085Z,18.97
2023-02-09T07:56:28.282Z,22.93
2023-02-09T07:58:56.160Z,19.07
2023-02-09T08:01:25.410Z,18.93
2023-02-09T08:03:52.384Z,16.97
2023-02-09T08:06:42.100Z,16.23
2023-02-09T08:09:11.718Z,18.90
2023-02-09T08:11:59.962Z,19.37
2023-02-09T08:14:36.752Z,21.60
2023-02-09T08:17:27.955Z,25.37
2023-02-09T08:20:16.985Z,23.23
2023-02-09T08:22:48.828Z,21.08
2023-02-09T08:25:17.685Z,18.30
2023-02-09T08:27:45.207Z,20.33
2023-02-09T08:30:14.240Z,17.77
2023-02-09T08:32:41.270Z,17.20
2023-02-09T08:35:08.361Z,18.52
2023-02-09T08:37:35.346Z,18.92
2023-02-09T08:40:02.060Z,24.52
2023-02-09T08:42:29.082Z,21.33
2023-02-09T08:44:55.880Z,19.92
2023-02-09T08:47:22.992Z,21.20
2023-02-09T08:49:51.119Z,20.73
2023-02-09T08:52:18.536Z,20.00
2023-02-09T08:54:45.259Z,20.58
2023-02-09T08:57:11.979Z,17.13
2023-02-09T08:59:38.686Z,17.33
2023-02-09T09:02:05.364Z,16.17
2023-02-09T09:04:32.104Z,15.73
2023-02-09T09:07:01.900Z,16.02
2023-02-09T09:09:28.977Z,15.77
2023-02-09T09:11:55.825Z,15.18
2023-02-09T09:14:22.751Z,21.42
2023-02-09T09:16:49.709Z,15.25
2023-02-09T09:19:16.518Z,12.05
2023-02-09T09:21:43.289Z,9.07
2023-02-09T09:24:09.998Z,10.88
2023-02-09T09:26:36.740Z,10.75
2023-02-09T09:29:04.059Z,10.52
2023-02-09T09:31:33.486Z,10.05
2023-02-09T09:34:00.349Z,10.52
2023-02-09T09:36:27.101Z,10.32
2023-02-09T09:38:55.751Z,16.13
2023-02-09T09:41:29.917Z,9.77
2023-02-09T09:43:57.326Z,21.42
2023-02-09T09:46:32.310Z,9.77
2023-02-09T09:49:02.294Z,11.05
2023-02-09T09:51:37.245Z,9.20
2023-02-09T09:54:07.533Z,9.77
2023-02-09T09:56:34.476Z,9.02
2023-02-09T09:59:01.895Z,8.75
2023-02-09T10:01:32.255Z,9.48
2023-02-09T10:04:06.410Z,9.98
2023-02-09T10:06:33.782Z,20.77
2023-02-09T10:09:15.683Z,30.45
2023-02-09T10:11:53.636Z,13.90
2023-02-09T10:14:22.849Z,11.23
2023-02-09T10:16:50.411Z,9.10
2023-02-09T10:19:20.891Z,8.75
2023-02-09T10:21:48.999Z,9.07
2023-02-09T10:24:25.517Z,8.65
2023-02-09T10:27:24.987Z,10.73
2023-02-09T10:29:51.695Z,8.77
2023-02-09T10:32:37.520Z,8.98
2023-02-09T10:35:24.700Z,8.50
2023-02-09T10:37:58.975Z,9.68
2023-02-09T10:40:34.471Z,10.45
2023-02-09T10:43:03.892Z,8.60
2023-02-09T10:45:45.503Z,10.25
2023-02-09T10:48:12.327Z,9.55
2023-02-09T10:51:07.722Z,11.88
2023-02-09T10:53:36.462Z,9.10
2023-02-09T10:56:17.134Z,9.80
2023-02-09T10:59:13.189Z,9.75
2023-02-09T11:01:42.441Z,8.60
2023-02-09T11:04:24.379Z,9.75
2023-02-09T11:07:03.670Z,9.20
2023-02-09T11:09:34.769Z,10.18
2023-02-09T11:12:01.625Z,8.98
2023-02-09T11:14:28.732Z,10.48
2023-02-09T11:17:19.177Z,12.02
2023-02-09T11:19:57.328Z,9.60
2023-02-09T11:22:58.995Z,10.07
2023-02-09T11:26:00.373Z,11.25
2023-02-09T11:28:27.495Z,12.33
2023-02-09T11:31:06.354Z,12.17
2023-02-09T11:34:06.866Z,9.70
2023-02-09T11:36:50.972Z,11.77
2023-02-09T11:39:30.928Z,10.70
2023-02-09T11:42:25.791Z,9.60
2023-02-09T11:44:57.604Z,10.47
2023-02-09T11:47:33.094Z,13.03
2023-02-09T11:50:02.244Z,10.37
2023-02-09T11:52:36.421Z,10.33
2023-02-09T11:55:26.150Z,11.50
2023-02-09T11:58:04.971Z,15.63
2023-02-09T12:00:52.060Z,12.07
2023-02-09T12:03:21.317Z,15.93
2023-02-09T12:05:48.844Z,14.93
2023-02-09T12:08:38.014Z,12.80
2023-02-09T12:11:26.660Z,14.23
2023-02-09T12:13:59.669Z,11.50
2023-02-09T12:16:33.170Z,15.73
2023-02-09T12:19:00.195Z,13.10
2023-02-09T12:21:33.830Z,13.97
2023-02-09T12:24:01.962Z,13.53
2023-02-09T12:26:41.000Z,14.67
2023-02-09T12:29:32.660Z,13.77
2023-02-09T12:32:08.440Z,15.00
2023-02-09T12:34:35.211Z,15.07
2023-02-09T12:37:14.184Z,14.57
2023-02-09T12:40:03.397Z,12.83
2023-02-09T12:42:44.239Z,16.50
2023-02-09T12:45:32.840Z,12.97
2023-02-09T12:48:07.613Z,16.37
2023-02-09T12:50:43.556Z,13.73
2023-02-09T12:53:22.528Z,15.80
2023-02-09T12:56:07.798Z,19.07
2023-02-09T12:58:46.276Z,18.67
2023-02-09T13:01:15.761Z,13.90
2023-02-09T13:03:53.647Z,17.67
2023-02-09T13:06:30.633Z,16.20
2023-02-09T13:09:02.254Z,19.40
2023-02-09T13:11:43.000Z,15.90
2023-02-09T13:14:13.304Z,16.40
2023-02-09T13:16:52.729Z,19.83
2023-02-09T13:20:02.009Z,17.13
2023-02-09T13:22:43.973Z,13.20
2023-02-09T13:25:38.245Z,15.73
2023-02-09T13:28:16.995Z,13.57
2023-02-09T13:30:45.115Z,18.37
2023-02-09T13:33:37.498Z,16.83
2023-02-09T13:36:22.924Z,19.57
2023-02-09T13:38:51.375Z,15.03
2023-02-09T13:41:36.321Z,13.73
2023-02-09T13:44:03.322Z,12.87
2023-02-09T13:46:35.209Z,14.53
2023-02-09T13:49:15.564Z,13.40
2023-02-09T13:51:42.627Z,13.10
2023-02-09T13:54:19.599Z,13.83
2023-02-09T13:56:46.778Z,13.53
2023-02-09T13:59:18.620Z,13.87
2023-02-09T14:01:46.602Z,14.93
2023-02-09T14:04:25.426Z,15.53
2023-02-09T14:07:08.454Z,14.60
2023-02-09T14:09:51.512Z,14.73
2023-02-09T14:12:51.653Z,16.77
2023-02-09T14:15:46.755Z,18.80
2023-02-09T14:18:41.329Z,15.50
2023-02-09T14:21:10.836Z,13.73
2023-02-09T14:23:38.530Z,14.83
2023-02-09T14:26:26.851Z,18.53
2023-02-09T14:29:04.019Z,18.00
2023-02-09T14:31:33.693Z,25.93
2023-02-09T14:34:00.468Z,23.17
2023-02-09T14:36:32.583Z,23.83
2023-02-09T14:39:11.071Z,17.90
2023-02-09T14:41:37.955Z,19.80
2023-02-09T14:44:07.494Z,16.47
2023-02-09T14:47:26.360Z,17.00
2023-02-09T14:49:53.050Z,17.57
2023-02-09T14:52:23.658Z,18.57
2023-02-09T14:54:50.942Z,17.23
2023-02-09T14:57:17.640Z,14.97
2023-02-09T14:59:44.316Z,17.80
2023-02-09T15:02:41.615Z,21.37
2023-02-09T15:05:10.287Z,18.60
2023-02-09T15:07:43.204Z,17.43
2023-02-09T15:10:42.584Z,16.50
2023-02-09T15:13:12.290Z,18.37
2023-02-09T15:15:39.886Z,16.00
2023-02-09T15:18:07.238Z,18.03
2023-02-09T15:20:34.208Z,16.67
2023-02-09T15:23:01.140Z,19.33
2023-02-09T15:25:29.054Z,18.47
2023-02-09T15:28:03.155Z,19.17
2023-02-09T15:30:35.028Z,19.67
2023-02-09T15:33:01.949Z,30.53
2023-02-09T15:35:29.789Z,21.90
2023-02-09T15:37:59.666Z,19.17
2023-02-09T15:40:52.206Z,17.60
2023-02-09T15:43:40.886Z,18.73
2023-02-09T15:46:27.373Z,23.20
2023-02-09T15:48:54.089Z,21.47
2023-02-09T15:51:22.256Z,22.13
2023-02-09T15:53:49.417Z,22.57
2023-02-09T15:56:16.499Z,27.20
2023-02-09T15:58:44.907Z,22.23
2023-02-09T16:01:15.283Z,24.53
2023-02-09T16:03:42.672Z,22.90
2023-02-09T16:06:19.033Z,24.17
2023-02-09T16:08:47.188Z,28.27
2023-02-09T16:11:23.639Z,26.37
2023-02-09T16:13:50.777Z,26.93
2023-02-09T16:16:18.137Z,26.00
2023-02-09T16:18:46.460Z,26.17
2023-02-09T16:21:27.862Z,28.90
2023-02-09T16:23:57.099Z,28.53
2023-02-09T16:26:25.383Z,28.43
2023-02-09T16:28:52.552Z,30.30
2023-02-09T16:31:19.892Z,25.83
2023-02-09T16:33:47.120Z,29.20
2023-02-09T16:36:17.573Z,28.00
2023-02-09T16:38:44.853Z,30.00
2023-02-09T16:41:35.373Z,37.13
2023-02-09T16:44:09.756Z,44.00
2023-02-09T16:46:36.593Z,40.83
2023-02-09T16:49:03.424Z,51.83
2023-02-09T16:51:30.294Z,53.53
2023-02-09T16:53:58.129Z,53.60
2023-02-09T16:56:25.973Z,50.20
2023-02-09T16:58:52.791Z,39.83
2023-02-09T17:01:22.798Z,34.43
2023-02-09T17:03:55.754Z,30.70
2023-02-09T17:06:24.757Z,32.57
2023-02-09T17:08:56.594Z,32.83
2023-02-09T17:11:25.946Z,26.23
2023-02-09T17:13:53.063Z,22.23
2023-02-09T17:16:27.440Z,21.93
2023-02-09T17:18:58.143Z,29.47
2023-02-09T17:21:31.515Z,31.53
2023-02-09T17:23:58.297Z,29.43
2023-02-09T17:26:25.162Z,28.33
2023-02-09T17:28:52.453Z,28.93
2023-02-09T17:31:25.589Z,28.93
2023-02-09T17:33:57.908Z,30.53
2023-02-09T17:36:27.919Z,34.43
2023-02-09T17:38:57.859Z,29.93
2023-02-09T17:41:42.158Z,25.17
2023-02-09T17:44:39.650Z,32.93
2023-02-09T17:47:20.959Z,29.57
2023-02-09T17:49:48.050Z,29.23
2023-02-09T17:52:20.343Z,32.23
2023-02-09T17:54:47.646Z,45.07
2023-02-09T17:57:16.296Z,35.67
2023-02-09T17:59:43.341Z,29.17
2023-02-09T18:02:18.088Z,31.77
2023-02-09T18:04:44.861Z,31.30
2023-02-09T18:07:12.770Z,35.97
2023-02-09T18:09:39.539Z,36.60
2023-02-09T18:12:24.576Z,32.40
2023-02-09T18:14:51.321Z,28.57
2023-02-09T18:17:18.530Z,32.60
2023-02-09T18:19:45.501Z,28.47
2023-02-09T18:22:14.549Z,27.40
2023-02-09T18:24:41.795Z,32.53
2023-02-09T18:27:13.512Z,29.63
2023-02-09T18:29:40.233Z,32.40
2023-02-09T18:32:07.217Z,34.33
2023-02-09T18:34:35.863Z,35.23
2023-02-09T18:37:02.580Z,38.17
2023-02-09T18:39:38.734Z,33.17
2023-02-09T18:42:10.144Z,31.23
2023-02-09T18:44:36.929Z,33.30
2023-02-09T18:47:04.043Z,34.63
2023-02-09T18:49:30.869Z,32.40
2023-02-09T18:51:58.905Z,43.70
2023-02-09T18:54:28.333Z,36.17
2023-02-09T18:56:55.464Z,39.17
2023-02-09T18:59:22.292Z,40.17
2023-02-09T19:01:50.491Z,39.53
2023-02-09T19:04:17.213Z,39.03
2023-02-09T19:06:43.891Z,40.53
2023-02-09T19:09:10.572Z,39.73
2023-02-09T19:11:37.379Z,41.47
2023-02-09T19:14:22.801Z,40.03
2023-02-09T19:16:49.676Z,38.73
2023-02-09T19:19:16.357Z,36.70
2023-02-09T19:21:43.084Z,36.87
2023-02-09T19:24:09.766Z,31.80
2023-02-09T19:26:36.659Z,34.83
2023-02-09T19:29:03.879Z,33.80
2023-02-09T19:31:30.778Z,33.37
2023-02-09T19:33:57.975Z,38.23
2023-02-09T19:36:27.742Z,34.03
2023-02-09T19:38:55.640Z,37.47
2023-02-09T19:41:25.355Z,37.97
2023-02-09T19:43:57.208Z,32.60
2023-02-09T19:46:25.027Z,32.60
2023-02-09T19:48:53.760Z,39.57
2023-02-09T19:51:20.681Z,34.10
2023-02-09T19:53:47.632Z,32.37
2023-02-09T19:56:16.960Z,32.67
2023-02-09T19:58:44.745Z,35.53
2023-02-09T20:01:12.188Z,37.17
2023-02-09T20:03:39.314Z,37.37
2023-02-09T20:06:14.310Z,37.17
2023-02-09T20:08:41.205Z,35.90
2023-02-09T20:11:10.489Z,37.93
2023-02-09T20:13:37.413Z,34.60
2023-02-09T20:16:13.679Z,31.90
2023-02-09T20:18:41.042Z,33.30
2023-02-09T20:21:08.892Z,35.53
2023-02-09T20:23:37.254Z,36.00
2023-02-09T20:26:21.462Z,35.17
2023-02-09T20:28:49.023Z,37.77
2023-02-09T20:31:24.189Z,41.87
2023-02-09T20:33:51.240Z,38.23
2023-02-09T20:36:18.652Z,38.53
2023-02-09T20:38:45.518Z,42.13
2023-02-09T20:41:15.393Z,41.40
2023-02-09T20:44:20.883Z,41.03
2023-02-09T20:46:56.671Z,41.60
2023-02-09T20:49:29.321Z,42.07
2023-02-09T20:51:56.117Z,42.47
2023-02-09T20:54:23.250Z,47.38
2023-02-09T20:56:50.370Z,48.53
2023-02-09T20:59:17.617Z,43.87
2023-02-09T21:01:45.978Z,42.70
2023-02-09T21:04:13.132Z,46.27
2023-02-09T21:06:39.897Z,48.07
2023-02-09T21:09:08.504Z,44.67
2023-02-09T21:11:37.003Z,40.83
2023-02-09T21:14:03.896Z,45.17
2023-02-09T21:16:31.194Z,41.07
2023-02-09T21:18:58.998Z,45.40
2023-02-09T21:21:27.075Z,41.83
2023-02-09T21:23:54.256Z,44.20
2023-02-09T21:26:25.091Z,40.53
2023-02-09T21:28:56.137Z,40.00
2023-02-09T21:31:27.094Z,38.13
2023-02-09T21:33:53.938Z,43.93
2023-02-09T21:36:20.701Z,40.73
2023-02-09T21:38:47.534Z,46.53
2023-02-09T21:41:37.313Z,43.50
2023-02-09T21:44:05.100Z,44.80
2023-02-09T21:46:32.322Z,41.37
2023-02-09T21:48:59.156Z,44.13
2023-02-09T21:51:25.893Z,45.97
2023-02-09T21:53:52.799Z,41.87
2023-02-09T21:56:19.663Z,46.10
2023-02-09T21:58:46.779Z,52.60
2023-02-09T22:01:13.819Z,54.23
2023-02-09T22:03:42.613Z,46.67
2023-02-09T22:06:09.994Z,40.33
2023-02-09T22:08:36.871Z,40.00
2023-02-09T22:11:06.165Z,44.83
2023-02-09T22:13:33.900Z,38.67
2023-02-09T22:16:04.981Z,39.77
2023-02-09T22:18:31.766Z,37.23
2023-02-09T22:20:58.433Z,40.50
2023-02-09T22:23:27.018Z,43.60
2023-02-09T22:26:05.133Z,42.57
2023-02-09T22:28:34.484Z,39.23
2023-02-09T22:31:11.809Z,42.03
2023-02-09T22:33:39.155Z,44.57
2023-02-09T22:36:12.470Z,46.30
2023-02-09T22:38:39.297Z,39.03
2023-02-09T22:41:23.374Z,44.87
2023-02-09T22:43:55.601Z,43.17
2023-02-09T22:46:33.641Z,41.97
2023-02-09T22:49:05.871Z,44.50
2023-02-09T22:51:33.786Z,44.37
2023-02-09T22:54:01.331Z,54.57
2023-02-09T22:56:29.488Z,50.43
2023-02-09T22:58:58.326Z,58.87
2023-02-09T23:01:25.418Z,45.70
2023-02-09T23:03:52.620Z,41.70
2023-02-09T23:06:23.346Z,46.77
2023-02-09T23:08:53.828Z,49.33
2023-02-09T23:11:20.592Z,46.93
2023-02-09T23:13:50.908Z,43.33
2023-02-09T23:16:25.105Z,43.93
2023-02-09T23:18:55.963Z,41.93
2023-02-09T23:21:25.804Z,42.37
2023-02-09T23:23:53.336Z,40.50
2023-02-09T23:26:20.720Z,40.57
2023-02-09T23:28:48.347Z,37.37
2023-02-09T23:31:18.743Z,37.07
2023-02-09T23:33:45.785Z,44.70
2023-02-09T23:36:16.956Z,40.83
2023-02-09T23:38:45.192Z,43.00
2023-02-09T23:41:14.930Z,43.33
2023-02-09T23:43:42.129Z,44.47
2023-02-09T23:46:14.272Z,45.93
2023-02-09T23:48:41.258Z,43.43
2023-02-09T23:51:11.276Z,40.23
2023-02-09T23:53:38.331Z,42.33
2023-02-09T23:56:05.694Z,41.53
2023-02-09T23:58:36.459Z,44.87
